Time;durP1;ratioP1;P1;durP2;ratioP2;P2;SDS_P1;SDS_P2;PMS_P1;PMS_P2;Temp;Humidity;BMP_temperature;BMP_pressure;BME280_temperature;BME280_humidity;BME280_pressure;Samples;Min_cycle;Max_cycle;Signal;HPM_P1;HPM_P2
2023/03/16 00:00:50;;;;;;;1.85;0.90;;;;;;;0.72;100.00;92221.44;5089548;28;20048;-72
2023/03/16 00:03:18;;;;;;;1.50;1.10;;;;;;;0.72;100.00;92244.16;5089139;28;20514;-72
2023/03/16 00:05:46;;;;;;;1.40;0.90;;;;;;;0.69;100.00;92244.53;5089217;28;20409;-71
2023/03/16 00:08:14;;;;;;;1.30;0.70;;;;;;;0.63;100.00;92235.88;5089376;28;20043;-71
2023/03/16 00:10:45;;;;;;;1.13;0.70;;;;;;;0.59;100.00;92245.56;5089104;28;20048;-71
2023/03/16 00:13:13;;;;;;;1.70;0.90;;;;;;;0.59;100.00;92248.09;5089547;28;20094;-71
2023/03/16 00:15:40;;;;;;;1.45;0.90;;;;;;;0.65;100.00;92251.69;5089633;28;20101;-72
2023/03/16 00:18:07;;;;;;;2.92;1.40;;;;;;;0.66;100.00;92253.25;5090051;28;20052;-71
2023/03/16 00:20:33;;;;;;;3.22;1.58;;;;;;;0.71;100.00;92258.56;5088978;28;20044;-71
2023/03/16 00:23:01;;;;;;;1.90;1.10;;;;;;;0.69;100.00;92252.88;5089185;28;20122;-71
2023/03/16 00:25:32;;;;;;;1.20;0.88;;;;;;;0.54;100.00;92245.28;5088699;28;20548;-71
2023/03/16 00:28:02;;;;;;;2.30;1.80;;;;;;;0.55;100.00;92243.56;5089165;28;20048;-71
2023/03/16 00:30:29;;;;;;;2.20;1.20;;;;;;;0.53;100.00;92252.09;5088848;28;20510;-71
2023/03/16 00:32:55;;;;;;;1.55;0.90;;;;;;;0.49;100.00;92255.94;5089127;28;20048;-71
2023/03/16 00:35:22;;;;;;;1.10;0.70;;;;;;;0.53;100.00;92259.69;5089187;28;20093;-71
2023/03/16 00:37:49;;;;;;;2.72;1.00;;;;;;;0.58;100.00;92258.38;5089060;28;20048;-71
2023/03/16 00:40:16;;;;;;;1.02;0.70;;;;;;;0.56;100.00;92272.94;5089121;28;20048;-71
2023/03/16 00:42:44;;;;;;;1.50;0.52;;;;;;;0.50;100.00;92267.59;5088687;28;20456;-71
2023/03/16 00:45:11;;;;;;;0.95;0.57;;;;;;;0.49;100.00;92271.09;5088849;28;20044;-71
2023/03/16 00:47:38;;;;;;;1.77;1.20;;;;;;;0.57;100.00;92279.53;5088660;28;20044;-72
2023/03/16 00:50:05;;;;;;;1.40;1.00;;;;;;;0.53;100.00;92276.56;5088966;28;20044;-71
2023/03/16 00:52:34;;;;;;;1.40;1.17;;;;;;;0.50;100.00;92276.91;5088961;28;20098;-71
2023/03/16 00:55:02;;;;;;;1.52;0.80;;;;;;;0.49;100.00;92278.66;5088847;28;20076;-72
2023/03/16 00:57:28;;;;;;;2.10;1.80;;;;;;;0.35;100.00;92274.34;5088847;28;20051;-71
2023/03/16 00:59:57;;;;;;;1.52;1.10;;;;;;;0.37;100.00;92283.34;5089056;28;20464;-71
2023/03/16 01:02:23;;;;;;;1.40;1.00;;;;;;;0.39;100.00;92281.44;5092487;28;20553;-71
2023/03/16 01:04:50;;;;;;;1.95;1.70;;;;;;;0.36;100.00;92286.81;5092991;28;20530;-71
2023/03/16 01:07:17;;;;;;;2.03;1.77;;;;;;;0.39;100.00;92285.69;5092452;28;20048;-71
2023/03/16 01:09:44;;;;;;;1.30;0.80;;;;;;;0.22;100.00;92285.81;5092759;28;20044;-72
2023/03/16 01:12:13;;;;;;;1.58;0.90;;;;;;;0.16;100.00;92281.44;5099673;28;20039;-71
2023/03/16 01:14:40;;;;;;;1.98;1.60;;;;;;;0.29;100.00;92288.47;5092679;28;20507;-72
2023/03/16 01:17:09;;;;;;;1.63;0.80;;;;;;;0.15;100.00;92281.63;5092776;28;20048;-71
2023/03/16 01:19:37;;;;;;;1.63;0.98;;;;;;;0.15;100.00;92289.19;5086187;28;20048;-71
2023/03/16 01:22:05;;;;;;;1.13;0.60;;;;;;;0.01;100.00;92300.81;5086030;28;20109;-71
2023/03/16 01:24:31;;;;;;;1.63;0.90;;;;;;;0.07;100.00;92290.03;5092245;28;20048;-71
2023/03/16 01:26:58;;;;;;;1.33;0.70;;;;;;;0.02;100.00;92294.78;5092687;28;20048;-72
2023/03/16 01:29:25;;;;;;;1.00;0.70;;;;;;;0.06;100.00;92301.88;5092396;28;20048;-70
2023/03/16 01:31:51;;;;;;;1.20;0.77;;;;;;;0.04;100.00;92293.66;5076149;28;20048;-69
2023/03/16 01:34:19;;;;;;;1.90;0.70;;;;;;;0.06;100.00;92293.50;5079134;28;20089;-69
2023/03/16 01:36:48;;;;;;;4.47;1.20;;;;;;;0.09;100.00;92288.91;5092273;28;20040;-70
2023/03/16 01:39:16;;;;;;;2.70;2.10;;;;;;;0.02;100.00;92297.31;5092058;28;20048;-70
2023/03/16 01:41:44;;;;;;;1.70;1.27;;;;;;;0.04;100.00;92306.28;5092054;28;20087;-72
2023/03/16 01:44:15;;;;;;;1.73;1.25;;;;;;;0.05;100.00;92304.56;5092300;28;20119;-72
2023/03/16 01:46:43;;;;;;;1.13;0.60;;;;;;;0.01;100.00;92295.75;5091930;28;20044;-70
2023/03/16 01:49:12;;;;;;;1.38;0.70;;;;;;;-0.01;100.00;92308.53;5092025;28;20117;-71
2023/03/16 01:51:43;;;;;;;1.58;0.90;;;;;;;-0.06;100.00;92304.00;5092057;28;20090;-71
2023/03/16 01:54:15;;;;;;;1.35;1.00;;;;;;;-0.19;100.00;92303.78;5091825;28;20040;-70
2023/03/16 01:56:50;;;;;;;1.30;0.77;;;;;;;-0.13;100.00;92310.69;5092080;28;20093;-70
2023/03/16 01:59:21;;;;;;;1.50;0.88;;;;;;;-0.29;100.00;92307.28;5091769;28;20516;-70
2023/03/16 02:01:50;;;;;;;1.60;1.00;;;;;;;-0.22;100.00;92309.94;5091544;28;20048;-71
2023/03/16 02:04:26;;;;;;;1.80;1.10;;;;;;;-0.02;100.00;92312.03;5091887;28;20434;-71
2023/03/16 02:06:57;;;;;;;1.90;1.40;;;;;;;-0.03;100.00;92318.03;5091829;28;20458;-71
2023/03/16 02:09:25;;;;;;;2.00;0.90;;;;;;;-0.02;100.00;92319.59;5091962;28;20048;-71
2023/03/16 02:11:54;;;;;;;1.30;0.80;;;;;;;-0.07;100.00;92317.59;5091395;28;20126;-71
2023/03/16 02:14:21;;;;;;;1.98;1.25;;;;;;;-0.12;100.00;92304.66;5092054;28;20064;-71
2023/03/16 02:16:49;;;;;;;1.52;1.00;;;;;;;-0.11;100.00;92313.81;5091408;28;20090;-71
2023/03/16 02:19:21;;;;;;;2.03;1.45;;;;;;;-0.09;100.00;92322.00;5091617;28;20040;-71
2023/03/16 02:21:55;;;;;;;1.55;1.15;;;;;;;-0.11;100.00;92328.16;5091339;28;20052;-71
2023/03/16 02:24:23;;;;;;;1.90;1.60;;;;;;;0.29;100.00;92335.66;5091541;28;20048;-71
2023/03/16 02:26:55;;;;;;;3.15;2.45;;;;;;;0.23;100.00;92345.47;5091117;28;20488;-71
2023/03/16 02:29:32;;;;;;;3.90;2.00;;;;;;;0.10;100.00;92340.22;5091211;28;20121;-71
2023/03/16 02:32:01;;;;;;;2.60;1.92;;;;;;;0.17;100.00;92351.19;5091304;28;20044;-71
2023/03/16 02:34:28;;;;;;;11.45;4.20;;;;;;;0.03;100.00;92349.38;5091560;28;20411;-71
2023/03/16 02:36:56;;;;;;;2.10;1.23;;;;;;;-0.10;100.00;92357.53;5091414;28;20052;-72
2023/03/16 02:39:23;;;;;;;1.70;1.10;;;;;;;-0.10;100.00;92353.25;5090844;28;20491;-71
2023/03/16 02:41:50;;;;;;;1.73;1.10;;;;;;;-0.05;100.00;92355.28;5091319;28;20048;-71
2023/03/16 02:44:23;;;;;;;1.60;1.02;;;;;;;0.05;100.00;92355.84;5090813;28;20427;-71
2023/03/16 02:46:52;;;;;;;1.00;0.60;;;;;;;0.08;100.00;92369.88;5091139;28;20067;-71
2023/03/16 02:49:26;;;;;;;1.20;0.50;;;;;;;-0.14;100.00;92365.41;5091055;28;20120;-71
2023/03/16 02:51:53;;;;;;;1.70;1.00;;;;;;;0.07;100.00;92350.63;5090772;28;20051;-72
2023/03/16 02:54:20;;;;;;;1.63;0.80;;;;;;;0.30;100.00;92365.00;5091040;28;20471;-72
2023/03/16 02:56:46;;;;;;;1.50;0.80;;;;;;;0.42;100.00;92371.28;5090704;28;20041;-71
2023/03/16 02:59:16;;;;;;;1.30;0.90;;;;;;;0.61;100.00;92362.41;5090327;28;20451;-72
2023/03/16 03:01:42;;;;;;;1.50;0.90;;;;;;;0.81;100.00;92377.13;5070370;28;20084;-71
2023/03/16 03:04:09;;;;;;;1.40;0.88;;;;;;;0.84;100.00;92365.91;5070961;28;20048;-72
2023/03/16 03:06:37;;;;;;;1.00;0.63;;;;;;;0.99;100.00;92381.09;5070334;28;20049;-72
2023/03/16 03:09:05;;;;;;;2.22;1.58;;;;;;;1.16;100.00;92382.50;5070484;28;20040;-71
2023/03/16 03:11:32;;;;;;;1.83;1.00;;;;;;;1.10;100.00;92377.38;5081887;28;20044;-71
2023/03/16 03:13:59;;;;;;;2.00;1.33;;;;;;;1.14;100.00;92392.03;5090224;28;20499;-72
2023/03/16 03:16:26;;;;;;;2.13;1.23;;;;;;;1.14;100.00;92381.91;5090674;28;20564;-72
2023/03/16 03:18:53;;;;;;;2.08;1.58;;;;;;;1.32;100.00;92399.28;5090499;28;20044;-72
2023/03/16 03:21:20;;;;;;;2.75;1.88;;;;;;;1.25;100.00;92395.88;5090699;28;20500;-72
2023/03/16 03:23:48;;;;;;;3.70;2.00;;;;;;;1.27;100.00;92401.56;5088101;28;20450;-72
2023/03/16 03:26:16;;;;;;;3.50;1.77;;;;;;;1.06;100.00;92403.00;5069784;28;20045;-72
2023/03/16 03:28:44;;;;;;;2.65;1.88;;;;;;;0.85;100.00;92385.97;5073238;28;20101;-71
2023/03/16 03:31:14;;;;;;;3.47;2.60;;;;;;;0.93;100.00;92402.81;5090394;28;20447;-71
2023/03/16 03:33:41;;;;;;;3.63;2.25;;;;;;;1.01;100.00;92401.94;5089823;28;20044;-72
2023/03/16 03:36:08;;;;;;;2.20;1.52;;;;;;;1.03;100.00;92405.84;5090349;28;20051;-73
2023/03/16 03:38:35;;;;;;;7.00;3.47;;;;;;;1.10;100.00;92417.84;5073823;28;20467;-72
2023/03/16 03:41:07;;;;;;;66.95;26.23;;;;;;;0.76;100.00;92413.03;5069641;28;20558;-72
2023/03/16 03:43:34;;;;;;;15.48;8.25;;;;;;;0.60;100.00;92408.09;5069392;28;20054;-71
2023/03/16 03:46:04;;;;;;;5.47;2.70;;;;;;;0.54;100.00;92407.03;5069858;28;20045;-72
2023/03/16 03:48:30;;;;;;;5.22;2.80;;;;;;;0.59;100.00;92402.25;5069739;28;20098;-71
2023/03/16 03:50:57;;;;;;;4.05;2.45;;;;;;;0.75;100.00;92418.25;5069505;28;20454;-71
2023/03/16 03:53:24;;;;;;;4.43;2.58;;;;;;;0.58;100.00;92420.91;5069490;28;20045;-72
2023/03/16 03:55:51;;;;;;;4.75;2.92;;;;;;;0.51;100.00;92414.97;5069648;28;20099;-72
2023/03/16 03:58:19;;;;;;;4.65;3.00;;;;;;;0.66;100.00;92420.84;5069485;28;20048;-72
2023/03/16 04:00:45;;;;;;;3.90;3.10;;;;;;;0.69;100.00;92413.88;5069650;28;20119;-71
2023/03/16 04:03:12;;;;;;;3.20;2.28;;;;;;;0.72;100.00;92428.69;5069427;28;20129;-71
2023/03/16 04:05:39;;;;;;;2.50;1.80;;;;;;;0.64;100.00;92421.97;5069474;28;20049;-71
2023/03/16 04:08:06;;;;;;;5.32;3.17;;;;;;;0.49;100.00;92435.34;5069407;28;20106;-70
2023/03/16 04:10:33;;;;;;;9.73;6.05;;;;;;;0.29;100.00;92432.44;5076236;28;20496;-70
2023/03/16 04:13:00;;;;;;;2.92;1.77;;;;;;;0.25;100.00;92438.78;5089380;28;20093;-72
2023/03/16 04:15:31;;;;;;;2.95;1.73;;;;;;;0.03;100.00;92441.09;5089398;28;20046;-71
2023/03/16 04:17:58;;;;;;;3.20;2.05;;;;;;;0.20;100.00;92431.69;5089465;28;20048;-71
2023/03/16 04:20:25;;;;;;;10.30;5.28;;;;;;;0.02;100.00;92442.03;5089455;28;20097;-70
2023/03/16 04:22:57;;;;;;;2.88;1.63;;;;;;;-0.02;100.00;92450.88;5089488;28;20089;-71
2023/03/16 04:25:25;;;;;;;3.15;1.70;;;;;;;-0.09;100.00;92455.03;5089496;28;20079;-70
2023/03/16 04:27:51;;;;;;;7.78;5.10;;;;;;;-0.38;100.00;92452.09;5089409;28;20059;-71
2023/03/16 04:30:18;;;;;;;3.00;1.63;;;;;;;-0.50;100.00;92449.13;5088985;28;20488;-70
2023/03/16 04:32:46;;;;;;;1.60;1.00;;;;;;;-0.29;100.00;92451.13;5089440;28;20462;-71
2023/03/16 04:35:14;;;;;;;2.60;1.42;;;;;;;-0.44;100.00;92443.44;5088936;28;20044;-71
2023/03/16 04:37:41;;;;;;;1.88;1.20;;;;;;;-0.55;100.00;92448.84;5089033;28;20094;-71
2023/03/16 04:40:15;;;;;;;2.45;1.45;;;;;;;-0.47;100.00;92461.41;5088736;28;20044;-71
2023/03/16 04:42:42;;;;;;;2.40;1.50;;;;;;;-0.38;100.00;92471.50;5088901;28;20052;-72
2023/03/16 04:45:10;;;;;;;4.22;2.50;;;;;;;-0.33;100.00;92469.28;5087344;28;20039;-71
2023/03/16 04:47:36;;;;;;;5.45;3.83;;;;;;;-0.23;100.00;92469.88;5078181;28;20044;-71
2023/03/16 04:50:05;;;;;;;4.43;3.40;;;;;;;0.03;100.00;92476.44;5088790;28;20546;-71
2023/03/16 04:52:32;;;;;;;6.47;3.17;;;;;;;0.08;100.00;92474.19;5089069;28;20036;-72
2023/03/16 04:54:59;;;;;;;4.60;2.80;;;;;;;0.19;100.00;92477.31;5089086;28;20561;-72
2023/03/16 04:57:26;;;;;;;3.92;3.00;;;;;;;0.28;100.00;92483.94;5088777;28;20097;-71
2023/03/16 04:59:53;;;;;;;5.95;2.95;;;;;;;0.10;100.00;92461.41;5089163;28;20112;-71
2023/03/16 05:02:20;;;;;;;4.68;3.40;;;;;;;0.53;100.00;92492.16;5089050;28;20051;-72
2023/03/16 05:04:48;;;;;;;5.00;3.45;;;;;;;0.62;100.00;92480.28;5088856;28;20054;-71
2023/03/16 05:07:16;;;;;;;7.35;3.72;;;;;;;0.59;100.00;92498.28;5088473;28;20048;-72
2023/03/16 05:09:43;;;;;;;3.35;2.30;;;;;;;0.28;100.00;92503.34;5089005;28;20443;-71
2023/03/16 05:12:10;;;;;;;15.57;8.10;;;;;;;0.26;100.00;92506.03;5088786;28;20052;-71
2023/03/16 05:14:37;;;;;;;11.57;5.63;;;;;;;0.34;100.00;92502.69;5088795;28;20040;-70
2023/03/16 05:17:04;;;;;;;336.17;108.38;;;;;;;0.52;100.00;92505.75;5088684;28;20044;-71
2023/03/16 05:19:31;;;;;;;44.47;16.58;;;;;;;0.69;100.00;92510.72;5088666;28;20097;-72
2023/03/16 05:21:57;;;;;;;42.40;19.17;;;;;;;0.66;100.00;92513.59;5088968;28;20048;-71
2023/03/16 05:24:26;;;;;;;13.18;7.30;;;;;;;0.79;100.00;92518.88;5088754;28;20181;-71
2023/03/16 05:26:52;;;;;;;13.15;5.85;;;;;;;0.87;100.00;92519.78;5088612;28;20455;-71
2023/03/16 05:29:19;;;;;;;5.35;3.50;;;;;;;0.76;100.00;92526.81;5088344;28;20097;-73
2023/03/16 05:31:47;;;;;;;6.82;4.03;;;;;;;0.90;100.00;92521.97;5073296;28;20040;-72
2023/03/16 05:34:14;;;;;;;3.58;2.75;;;;;;;0.60;100.00;92524.38;5068686;28;20151;-71
2023/03/16 05:36:41;;;;;;;5.40;3.47;;;;;;;0.59;100.00;92521.03;5068561;28;20057;-71
2023/03/16 05:39:08;;;;;;;5.20;3.80;;;;;;;0.76;100.00;92526.81;5068511;28;20110;-71
2023/03/16 05:41:36;;;;;;;8.20;4.75;;;;;;;0.94;100.00;92530.81;5068260;28;20347;-72
2023/03/16 05:44:03;;;;;;;4.75;2.20;;;;;;;0.62;100.00;92540.13;5068482;28;20413;-72
2023/03/16 05:46:30;;;;;;;7.00;4.35;;;;;;;0.46;100.00;92530.91;5070814;28;20052;-71
2023/03/16 05:48:56;;;;;;;5.82;3.47;;;;;;;0.62;100.00;92537.63;5091927;28;20097;-72
2023/03/16 05:51:25;;;;;;;9.00;5.68;;;;;;;0.54;100.00;92538.44;5092304;28;20051;-71
2023/03/16 05:53:55;;;;;;;14.25;8.45;;;;;;;0.39;100.00;92541.66;5092125;28;20070;-71
2023/03/16 05:56:23;;;;;;;12.77;6.22;;;;;;;0.31;100.00;92545.94;5077764;28;20041;-71
2023/03/16 05:58:51;;;;;;;16.33;8.57;;;;;;;0.35;100.00;92545.47;5079842;28;20390;-71
2023/03/16 06:01:19;;;;;;;6.53;5.20;;;;;;;0.20;100.00;92547.88;5091952;28;20105;-71
2023/03/16 06:03:46;;;;;;;7.10;3.83;;;;;;;0.23;100.00;92546.78;5091744;28;20138;-72
2023/03/16 06:06:12;;;;;;;7.35;5.75;;;;;;;0.32;100.00;92543.25;5091973;28;20044;-71
2023/03/16 06:08:39;;;;;;;5.97;3.60;;;;;;;0.33;100.00;92544.06;5091898;28;20109;-71
2023/03/16 06:11:06;;;;;;;7.38;3.92;;;;;;;0.29;100.00;92556.22;5091864;28;20086;-72
2023/03/16 06:13:33;;;;;;;5.22;3.63;;;;;;;0.12;100.00;92561.31;5092022;28;20123;-71
2023/03/16 06:16:01;;;;;;;4.78;2.70;;;;;;;0.08;100.00;92557.53;5091597;28;20044;-71
2023/03/16 06:18:28;;;;;;;5.25;3.55;;;;;;;0.34;100.00;92560.78;5091869;28;20074;-71
2023/03/16 06:20:55;;;;;;;5.97;3.72;;;;;;;0.23;100.00;92539.19;5074375;28;20049;-71
2023/03/16 06:23:21;;;;;;;5.00;3.47;;;;;;;0.59;100.00;92566.53;5076706;28;20112;-72
2023/03/16 06:25:48;;;;;;;5.35;3.30;;;;;;;0.73;100.00;92570.09;5091147;28;20047;-72
2023/03/16 06:28:15;;;;;;;2.63;1.67;;;;;;;0.64;100.00;92571.88;5091112;28;20048;-72
2023/03/16 06:30:45;;;;;;;2.70;1.92;;;;;;;0.31;100.00;92561.09;5091081;28;20059;-71
2023/03/16 06:33:13;;;;;;;1.70;0.90;;;;;;;0.38;100.00;92580.50;5091135;28;20508;-71
2023/03/16 06:35:40;;;;;;;2.63;1.42;;;;;;;0.30;100.00;92592.38;5091291;28;20044;-71
2023/03/16 06:38:07;;;;;;;3.45;2.00;;;;;;;0.17;100.00;92587.81;5091380;28;20044;-71
2023/03/16 06:40:34;;;;;;;5.22;2.15;;;;;;;0.21;100.00;92592.41;5090872;28;20105;-71
2023/03/16 06:43:01;;;;;;;5.22;2.38;;;;;;;0.09;100.00;92602.03;5085993;28;20408;-71
2023/03/16 06:45:27;;;;;;;4.70;2.45;;;;;;;0.14;100.00;92606.63;5070891;28;20044;-71
2023/03/16 06:47:54;;;;;;;5.72;3.20;;;;;;;0.06;100.00;92592.28;5070968;28;20055;-72
2023/03/16 06:50:22;;;;;;;5.93;2.78;;;;;;;0.16;100.00;92599.66;5070534;28;20048;-71
2023/03/16 06:52:49;;;;;;;3.15;1.80;;;;;;;0.20;100.00;92598.41;5070518;28;20037;-72
2023/03/16 06:55:16;;;;;;;3.72;2.28;;;;;;;0.35;100.00;92610.34;5070488;28;20117;-72
2023/03/16 06:57:42;;;;;;;8.68;5.13;;;;;;;0.17;100.00;92629.03;5070554;28;20099;-72
2023/03/16 07:00:14;;;;;;;20.45;13.55;;;;;;;0.13;100.00;92620.97;5070820;28;20390;-72
2023/03/16 07:02:42;;;;;;;5.25;2.75;;;;;;;0.26;100.00;92629.78;5070037;28;20044;-71
2023/03/16 07:05:11;;;;;;;4.93;2.50;;;;;;;0.32;100.00;92629.16;5070253;28;20043;-72
2023/03/16 07:07:41;;;;;;;4.63;2.80;;;;;;;0.41;100.00;92616.50;5070332;28;20055;-72
2023/03/16 07:10:10;;;;;;;3.30;2.25;;;;;;;0.23;100.00;92617.50;5070172;28;20047;-71
2023/03/16 07:12:37;;;;;;;3.78;2.72;;;;;;;0.43;100.00;92639.88;5070617;28;20131;-71
2023/03/16 07:15:05;;;;;;;4.50;3.20;;;;;;;0.60;100.00;92638.09;5070814;28;20118;-72
2023/03/16 07:17:41;;;;;;;9.13;3.67;;;;;;;0.78;100.00;92636.13;5070727;28;20064;-72
2023/03/16 07:20:11;;;;;;;3.88;2.58;;;;;;;0.92;100.00;92649.03;5070433;28;20076;-72
2023/03/16 07:22:40;;;;;;;3.40;2.10;;;;;;;1.05;100.00;92649.31;5070595;28;20040;-72
2023/03/16 07:25:09;;;;;;;2.40;1.63;;;;;;;0.80;100.00;92644.31;5070352;28;20072;-73
2023/03/16 07:27:37;;;;;;;4.78;2.72;;;;;;;0.72;100.00;92661.25;5086297;28;20056;-72
2023/03/16 07:30:05;;;;;;;5.78;1.92;;;;;;;0.58;100.00;92645.84;5090341;28;20056;-72
2023/03/16 07:32:32;;;;;;;7.80;4.38;;;;;;;0.44;100.00;92629.59;5090845;28;20127;-72
2023/03/16 07:34:59;;;;;;;9.13;5.00;;;;;;;0.64;100.00;92635.06;5090231;28;20044;-72
2023/03/16 07:37:26;;;;;;;9.35;5.75;;;;;;;0.70;100.00;92640.44;5090344;28;20055;-72
2023/03/16 07:39:54;;;;;;;12.57;8.75;;;;;;;1.01;100.00;92667.47;5090117;28;20052;-72
2023/03/16 07:42:22;;;;;;;5.53;4.15;;;;;;;1.01;100.00;92673.34;5089798;28;20117;-72
2023/03/16 07:44:48;;;;;;;5.68;3.70;;;;;;;0.97;100.00;92677.13;5081814;28;20134;-72
2023/03/16 07:47:15;;;;;;;7.00;3.58;;;;;;;1.01;100.00;92670.00;5086121;28;20056;-72
2023/03/16 07:49:43;;;;;;;7.82;4.65;;;;;;;1.17;100.00;92669.16;5089825;28;20439;-72
2023/03/16 07:52:12;;;;;;;7.13;5.43;;;;;;;1.41;100.00;92673.31;5089613;28;20058;-72
2023/03/16 07:54:40;;;;;;;10.98;7.35;;;;;;;1.54;100.00;92677.84;5079270;28;20140;-72
2023/03/16 07:57:09;;;;;;;7.63;6.00;;;;;;;1.68;100.00;92689.00;5082550;28;20403;-72
2023/03/16 07:59:35;;;;;;;6.88;2.88;;;;;;;1.30;100.00;92651.69;5089650;28;20091;-71
2023/03/16 08:02:02;;;;;;;6.68;4.72;;;;;;;1.60;100.00;92683.97;5089710;28;20131;-71
2023/03/16 08:04:30;;;;;;;5.28;3.08;;;;;;;1.62;100.00;92691.38;5089397;28;20087;-71
2023/03/16 08:06:59;;;;;;;7.88;3.83;;;;;;;1.79;100.00;92690.31;5089450;28;20151;-71
2023/03/16 08:09:25;;;;;;;7.72;3.83;;;;;;;1.84;100.00;92690.63;5076208;28;20055;-71
2023/03/16 08:11:52;;;;;;;4.32;2.95;;;;;;;1.74;100.00;92684.97;5089475;28;20048;-71
2023/03/16 08:14:20;;;;;;;5.28;2.97;;;;;;;1.89;100.00;92696.94;5089442;28;20044;-72
2023/03/16 08:16:47;;;;;;;9.13;5.45;;;;;;;1.96;100.00;92695.28;5089333;28;20040;-71
2023/03/16 08:19:19;;;;;;;7.00;4.40;;;;;;;1.96;100.00;92703.69;5089569;28;20117;-71
2023/03/16 08:21:45;;;;;;;6.40;3.70;;;;;;;1.95;100.00;92712.22;5089374;28;20044;-71
2023/03/16 08:24:12;;;;;;;7.82;4.50;;;;;;;2.02;100.00;92703.94;5088985;28;20094;-70
2023/03/16 08:26:39;;;;;;;20.35;11.60;;;;;;;1.85;100.00;92699.00;5089116;28;20040;-71
2023/03/16 08:29:06;;;;;;;15.63;9.73;;;;;;;1.78;100.00;92700.63;5089402;28;20048;-71
2023/03/16 08:31:34;;;;;;;8.02;5.15;;;;;;;1.89;100.00;92702.75;5089033;28;20048;-71
2023/03/16 08:34:01;;;;;;;10.63;6.60;;;;;;;2.02;100.00;92716.59;5088827;28;20390;-71
2023/03/16 08:36:29;;;;;;;8.82;5.05;;;;;;;1.99;100.00;92721.06;5088951;28;20056;-71
2023/03/16 08:38:55;;;;;;;5.75;3.47;;;;;;;1.83;100.00;92729.56;5088510;28;20504;-71
2023/03/16 08:41:22;;;;;;;6.13;4.45;;;;;;;1.90;100.00;92724.59;5089351;28;20443;-71
2023/03/16 08:43:49;;;;;;;6.15;3.00;;;;;;;1.76;100.00;92731.16;5088653;28;20059;-71
2023/03/16 08:46:16;;;;;;;39.15;18.38;;;;;;;1.51;100.00;92736.38;5088838;28;20546;-71
2023/03/16 08:48:44;;;;;;;7.30;4.90;;;;;;;1.66;100.00;92725.56;5089018;28;20044;-71
2023/03/16 08:51:11;;;;;;;7.05;4.18;;;;;;;1.74;100.00;92722.97;5089122;28;20040;-70
2023/03/16 08:53:38;;;;;;;9.82;5.40;;;;;;;1.72;100.00;92720.59;5089220;28;20059;-70
2023/03/16 08:56:06;;;;;;;10.50;5.82;;;;;;;1.55;100.00;92727.50;5088663;28;20048;-70
2023/03/16 08:58:34;;;;;;;64.68;29.13;;;;;;;1.39;100.00;92730.13;5089651;28;20052;-70
2023/03/16 09:01:01;;;;;;;30.02;15.40;;;;;;;1.24;100.00;92692.06;5089229;28;20060;-71
2023/03/16 09:03:28;;;;;;;25.40;17.00;;;;;;;0.99;100.00;92684.56;5069620;28;20045;-71
2023/03/16 09:06:01;;;;;;;3.78;2.90;;;;;;;1.25;100.00;92734.91;5071667;28;20404;-71
2023/03/16 09:08:28;;;;;;;12.90;9.80;;;;;;;1.03;100.00;92738.94;5068027;28;20049;-70
2023/03/16 09:11:00;;;;;;;9.35;5.70;;;;;;;1.15;100.00;92732.56;5068081;28;20052;-70
2023/03/16 09:13:27;;;;;;;7.97;4.45;;;;;;;1.32;100.00;92740.09;5067959;28;20051;-72
2023/03/16 09:15:55;;;;;;;7.43;4.35;;;;;;;1.55;100.00;92724.97;5068373;28;20124;-70
2023/03/16 09:18:22;;;;;;;5.18;4.32;;;;;;;1.63;100.00;92733.47;5084156;28;20040;-70
2023/03/16 09:20:50;;;;;;;5.70;4.20;;;;;;;1.23;100.00;92726.69;5088935;28;20074;-70
2023/03/16 09:23:19;;;;;;;3.33;2.42;;;;;;;1.09;100.00;92748.41;5082787;28;20066;-70
2023/03/16 09:25:46;;;;;;;2.80;1.77;;;;;;;0.79;100.00;92746.41;5092516;28;20063;-70
2023/03/16 09:28:13;;;;;;;2.47;1.60;;;;;;;1.00;100.00;92735.00;5092053;28;20420;-70
2023/03/16 09:30:41;;;;;;;2.30;1.70;;;;;;;1.25;100.00;92731.59;5092269;28;20040;-70
2023/03/16 09:33:07;;;;;;;2.05;1.33;;;;;;;1.14;100.00;92733.53;5092134;28;20052;-70
2023/03/16 09:35:35;;;;;;;4.55;2.30;;;;;;;1.22;100.00;92725.13;5092536;28;20061;-70
2023/03/16 09:38:02;;;;;;;3.25;2.28;;;;;;;1.04;100.00;92730.41;5091981;28;20048;-70
2023/03/16 09:40:32;;;;;;;2.78;2.05;;;;;;;0.85;100.00;92744.19;5092143;28;20052;-70
2023/03/16 09:43:16;;;;;;;3.95;2.78;;;;;;;0.76;100.00;92738.38;5092167;28;20102;-71
2023/03/16 09:45:48;;;;;;;3.78;2.80;;;;;;;1.01;100.00;92734.03;5091493;28;20052;-70
2023/03/16 09:48:17;;;;;;;7.30;4.68;;;;;;;1.10;100.00;92722.16;5091892;28;20040;-70
2023/03/16 09:50:45;;;;;;;5.43;4.00;;;;;;;1.52;100.00;92734.66;5081886;28;20507;-70
2023/03/16 09:53:22;;;;;;;9.68;5.80;;;;;;;1.58;100.00;92754.22;5074390;28;20114;-71
2023/03/16 09:55:54;;;;;;;5.70;3.00;;;;;;;1.62;100.00;92742.78;5091757;28;20048;-70
2023/03/16 09:58:22;;;;;;;6.80;3.95;;;;;;;1.72;100.00;92752.72;5087666;28;20053;-70
2023/03/16 10:00:59;;;;;;;3.53;2.40;;;;;;;2.00;100.00;92758.09;5083427;28;20143;-70
2023/03/16 10:03:40;;;;;;;8.63;6.82;;;;;;;2.08;100.00;92757.25;5091896;28;20101;-71
2023/03/16 10:06:12;;;;;;;5.60;4.07;;;;;;;2.01;100.00;92758.91;5091874;28;20044;-70
2023/03/16 10:08:42;;;;;;;7.70;5.68;;;;;;;2.09;100.00;92742.84;5091169;28;20109;-71
2023/03/16 10:11:24;;;;;;;8.88;5.88;;;;;;;1.74;100.00;92773.59;5091895;28;20044;-71
2023/03/16 10:13:55;;;;;;;40.50;25.17;;;;;;;1.48;100.00;92761.22;5091356;28;20049;-71
2023/03/16 10:16:27;;;;;;;11.45;9.98;;;;;;;1.42;100.00;92755.06;5091946;28;20079;-71
2023/03/16 10:19:01;;;;;;;4.47;3.00;;;;;;;1.24;100.00;92740.16;5091605;28;20040;-71
2023/03/16 10:21:33;;;;;;;3.78;2.67;;;;;;;1.35;100.00;92751.63;5091838;28;20089;-71
2023/03/16 10:24:03;;;;;;;3.78;2.40;;;;;;;1.42;100.00;92755.06;5091143;28;20052;-70
2023/03/16 10:26:38;;;;;;;4.38;3.00;;;;;;;1.51;100.00;92755.81;5091651;28;20542;-70
2023/03/16 10:29:11;;;;;;;5.75;4.28;;;;;;;1.52;100.00;92752.38;5080238;28;20413;-71
2023/03/16 10:31:41;;;;;;;7.82;5.40;;;;;;;1.58;100.00;92741.56;5070218;28;20044;-71
2023/03/16 10:34:09;;;;;;;5.03;3.00;;;;;;;1.95;100.00;92744.38;5070773;28;20052;-71
2023/03/16 10:36:39;;;;;;;3.28;2.50;;;;;;;1.91;100.00;92743.13;5082654;28;20546;-71
2023/03/16 10:39:07;;;;;;;4.15;3.08;;;;;;;2.02;100.00;92759.66;5081839;28;20060;-71
2023/03/16 10:41:36;;;;;;;2.88;2.10;;;;;;;1.89;100.00;92753.41;5092509;28;20500;-72
2023/03/16 10:44:11;;;;;;;4.45;3.22;;;;;;;2.04;100.00;92762.84;5077421;28;20046;-71
2023/03/16 10:46:39;;;;;;;5.57;4.03;;;;;;;1.60;100.00;92752.31;5090623;28;20043;-71
2023/03/16 10:49:21;;;;;;;5.43;4.70;;;;;;;1.71;100.00;92759.53;5091231;28;20040;-72
2023/03/16 10:51:48;;;;;;;4.55;3.00;;;;;;;1.76;100.00;92756.50;5090902;28;20516;-71
2023/03/16 10:54:18;;;;;;;3.97;2.53;;;;;;;1.48;100.00;92759.47;5090756;28;20094;-71
2023/03/16 10:56:49;;;;;;;7.13;4.30;;;;;;;1.37;100.00;92758.09;5090813;28;20097;-71
2023/03/16 10:59:27;;;;;;;6.85;4.50;;;;;;;1.31;100.00;92751.94;5090659;28;20048;-71
2023/03/16 11:01:54;;;;;;;5.97;3.72;;;;;;;1.30;100.00;92752.13;5091022;28;20123;-71
2023/03/16 11:04:21;;;;;;;4.15;3.08;;;;;;;1.17;100.00;92757.72;5090426;28;20048;-71
2023/03/16 11:06:52;;;;;;;3.13;2.40;;;;;;;1.02;100.00;92750.78;5090545;28;20048;-71
2023/03/16 11:09:23;;;;;;;4.43;2.92;;;;;;;1.09;100.00;92767.84;5090214;28;20518;-71
2023/03/16 11:11:52;;;;;;;5.88;3.35;;;;;;;1.17;100.00;92753.41;5090575;28;20040;-72
2023/03/16 11:14:22;;;;;;;4.25;3.30;;;;;;;1.20;100.00;92765.75;5090272;28;20126;-72
2023/03/16 11:16:53;;;;;;;3.83;2.75;;;;;;;1.15;100.00;92760.41;5085558;28;20043;-72
2023/03/16 11:19:26;;;;;;;10.10;5.38;;;;;;;1.06;100.00;92763.88;5082993;28;20097;-71
2023/03/16 11:21:57;;;;;;;17.48;8.30;;;;;;;0.98;100.00;92772.31;5077094;28;20530;-71
2023/03/16 11:24:30;;;;;;;6.38;4.35;;;;;;;0.88;100.00;92764.88;5090037;28;20069;-71
2023/03/16 11:27:01;;;;;;;12.35;6.85;;;;;;;1.01;100.00;92778.75;5090048;28;20036;-71
2023/03/16 11:29:39;;;;;;;3.45;2.35;;;;;;;0.96;100.00;92775.97;5088470;28;20127;-71
2023/03/16 11:32:13;;;;;;;4.18;3.20;;;;;;;0.97;100.00;92770.72;5079831;28;20089;-71
2023/03/16 11:34:42;;;;;;;5.47;3.97;;;;;;;1.04;100.00;92763.28;5090379;28;20048;-71
2023/03/16 11:37:20;;;;;;;6.55;4.10;;;;;;;0.90;100.00;92764.72;5090290;28;20048;-71